createdAt,value
2022-12-25T00:01:52.204Z,2.86
2022-12-25T00:04:19.674Z,2.71
2022-12-25T00:06:47.067Z,2.70
2022-12-25T00:09:15.554Z,2.81
2022-12-25T00:11:43.215Z,2.68
2022-12-25T00:14:10.387Z,2.67
2022-12-25T00:16:40.097Z,3.02
2022-12-25T00:19:07.426Z,3.23
2022-12-25T00:21:35.799Z,3.17
2022-12-25T00:24:03.882Z,3.19
2022-12-25T00:26:32.266Z,3.33
2022-12-25T00:28:59.818Z,3.39
2022-12-25T00:31:27.553Z,3.31
2022-12-25T00:33:56.248Z,3.21
2022-12-25T00:36:24.074Z,3.26
2022-12-25T00:38:51.743Z,3.34
2022-12-25T00:41:43.834Z,3.33
2022-12-25T00:44:13.987Z,3.42
2022-12-25T00:46:42.977Z,3.66
2022-12-25T00:49:11.544Z,3.62
2022-12-25T00:51:38.832Z,3.70
2022-12-25T00:54:06.477Z,3.68
2022-12-25T00:56:34.064Z,3.64
2022-12-25T00:59:01.405Z,3.61
2022-12-25T01:01:28.563Z,3.58
2022-12-25T01:03:57.129Z,3.54
2022-12-25T01:06:26.195Z,3.58
2022-12-25T01:09:11.824Z,3.73
2022-12-25T01:11:40.536Z,3.78
2022-12-25T01:14:07.880Z,3.85
2022-12-25T01:16:36.760Z,3.86
2022-12-25T01:19:05.077Z,3.96
2022-12-25T01:21:33.634Z,3.96
2022-12-25T01:24:02.285Z,3.99
2022-12-25T01:26:29.746Z,4.01
2022-12-25T01:28:57.206Z,4.12
2022-12-25T01:31:25.637Z,4.17
2022-12-25T01:33:53.309Z,4.15
2022-12-25T01:36:24.284Z,4.21
2022-12-25T01:38:53.401Z,4.10
2022-12-25T01:41:24.074Z,4.03
2022-12-25T01:44:07.799Z,4.00
2022-12-25T01:46:35.876Z,3.95
2022-12-25T01:49:10.437Z,3.93
2022-12-25T01:51:45.450Z,4.01
2022-12-25T01:54:18.384Z,3.89
2022-12-25T01:56:50.136Z,4.05
2022-12-25T01:59:21.665Z,3.93
2022-12-25T02:01:49.467Z,3.89
2022-12-25T02:04:40.618Z,3.93
2022-12-25T02:07:20.641Z,3.92
2022-12-25T02:09:49.400Z,3.88
2022-12-25T02:12:28.618Z,3.95
2022-12-25T02:15:05.298Z,3.89
2022-12-25T02:17:53.785Z,4.05
2022-12-25T02:20:27.137Z,4.08
2022-12-25T02:23:13.943Z,3.99
2022-12-25T02:26:00.360Z,3.91
2022-12-25T02:29:03.435Z,3.93
2022-12-25T02:31:40.402Z,4.06
2022-12-25T02:34:46.794Z,4.10
2022-12-25T02:37:22.254Z,4.03
2022-12-25T02:40:10.799Z,4.14
2022-12-25T02:43:17.188Z,4.17
2022-12-25T02:46:26.718Z,3.97
2022-12-25T02:49:18.502Z,3.82
2022-12-25T02:52:08.939Z,3.73
2022-12-25T02:55:00.915Z,3.63
2022-12-25T02:57:58.980Z,3.75
2022-12-25T03:00:45.183Z,3.64
2022-12-25T03:03:34.703Z,3.52
2022-12-25T03:06:39.678Z,3.51
2022-12-25T03:09:40.598Z,3.51
2022-12-25T03:12:15.916Z,3.32
2022-12-25T03:15:01.835Z,3.32
2022-12-25T03:17:32.845Z,3.33
2022-12-25T03:20:19.726Z,3.47
2022-12-25T03:23:06.593Z,3.39
2022-12-25T03:25:52.886Z,3.61
2022-12-25T03:28:20.240Z,3.68
2022-12-25T03:31:14.529Z,3.81
2022-12-25T03:34:18.411Z,3.71
2022-12-25T03:37:30.900Z,3.50
2022-12-25T03:40:28.756Z,3.54
2022-12-25T03:43:27.267Z,3.67
2022-12-25T03:46:21.644Z,3.49
2022-12-25T03:49:17.789Z,3.71
2022-12-25T03:52:05.159Z,3.58
2022-12-25T03:54:55.874Z,3.57
2022-12-25T03:57:43.556Z,3.69
2022-12-25T04:00:30.121Z,3.69
2022-12-25T04:03:16.277Z,3.62
2022-12-25T04:06:02.292Z,3.60
2022-12-25T04:08:48.300Z,3.56
2022-12-25T04:11:34.086Z,3.53
2022-12-25T04:14:19.712Z,3.49
2022-12-25T04:17:07.628Z,3.54
2022-12-25T04:19:52.969Z,3.24
2022-12-25T04:22:38.719Z,3.20
2022-12-25T04:25:31.076Z,3.20
2022-12-25T04:28:23.955Z,3.22
2022-12-25T04:31:10.078Z,3.22
2022-12-25T04:33:55.996Z,3.30
2022-12-25T04:36:29.428Z,3.17
2022-12-25T04:38:56.748Z,3.05
2022-12-25T04:41:26.035Z,2.92
2022-12-25T04:43:53.437Z,3.06
2022-12-25T04:46:21.968Z,3.05
2022-12-25T04:48:49.367Z,2.91
2022-12-25T04:51:23.975Z,2.98
2022-12-25T04:53:52.397Z,2.83
2022-12-25T04:56:21.796Z,2.55
2022-12-25T04:58:49.776Z,2.31
2022-12-25T05:01:19.216Z,1.99
2022-12-25T05:03:46.793Z,1.95
2022-12-25T05:06:15.120Z,1.90
2022-12-25T05:08:44.680Z,1.68
2022-12-25T05:11:15.127Z,1.72
2022-12-25T05:13:43.142Z,2.11
2022-12-25T05:16:14.073Z,2.01
2022-12-25T05:18:41.830Z,1.98
2022-12-25T05:21:15.280Z,1.80
2022-12-25T05:23:48.881Z,1.79
2022-12-25T05:26:22.723Z,1.44
2022-12-25T05:28:51.398Z,1.31
2022-12-25T05:31:19.753Z,1.44
2022-12-25T05:33:50.849Z,1.20
2022-12-25T05:36:18.242Z,1.14
2022-12-25T05:38:47.496Z,1.26
2022-12-25T05:41:16.956Z,1.03
2022-12-25T05:43:50.527Z,1.17
2022-12-25T05:46:18.300Z,1.04
2022-12-25T05:48:45.868Z,0.89
2022-12-25T05:51:15.092Z,0.84
2022-12-25T05:53:44.230Z,0.87
2022-12-25T05:56:11.949Z,0.96
2022-12-25T05:58:41.329Z,1.03
2022-12-25T06:01:14.976Z,0.91
2022-12-25T06:03:42.545Z,0.59
2022-12-25T06:06:12.251Z,0.51
2022-12-25T06:08:46.837Z,0.53
2022-12-25T06:11:16.501Z,0.45
2022-12-25T06:13:44.404Z,0.44
2022-12-25T06:16:13.228Z,0.35
2022-12-25T06:18:43.833Z,0.22
2022-12-25T06:21:13.675Z,0.23
2022-12-25T06:23:41.881Z,0.22
2022-12-25T06:26:12.929Z,0.05
2022-12-25T06:28:40.515Z,-0.11
2022-12-25T06:31:10.573Z,-0.04
2022-12-25T06:33:38.489Z,-0.03
2022-12-25T06:36:11.743Z,-0.01
2022-12-25T06:38:39.438Z,0.04
2022-12-25T06:41:11.891Z,0.14
2022-12-25T06:43:40.361Z,-0.07
2022-12-25T06:46:11.037Z,0.00
2022-12-25T06:48:40.114Z,-0.01
2022-12-25T06:51:08.802Z,-0.13
2022-12-25T06:53:40.303Z,-0.15
2022-12-25T06:56:16.230Z,-0.16
2022-12-25T06:58:49.467Z,-0.03
2022-12-25T07:01:24.264Z,-0.05
2022-12-25T07:03:56.209Z,-0.06
2022-12-25T07:06:24.148Z,0.05
2022-12-25T07:08:51.887Z,0.13
2022-12-25T07:11:19.484Z,0.05
2022-12-25T07:13:47.162Z,-0.03
2022-12-25T07:16:15.312Z,-0.11
2022-12-25T07:18:42.591Z,-0.04
2022-12-25T07:21:16.145Z,0.08
2022-12-25T07:23:45.321Z,0.06
2022-12-25T07:26:13.980Z,0.00
2022-12-25T07:28:42.318Z,0.08
2022-12-25T07:31:15.480Z,0.09
2022-12-25T07:33:44.147Z,0.13
2022-12-25T07:36:14.247Z,0.27
2022-12-25T07:38:44.550Z,0.22
2022-12-25T07:41:13.494Z,0.26
2022-12-25T07:43:41.216Z,0.42
2022-12-25T07:46:08.622Z,0.57
2022-12-25T07:48:36.440Z,0.82
2022-12-25T07:51:07.037Z,0.96
2022-12-25T07:53:41.242Z,0.90
2022-12-25T07:56:15.196Z,0.83
2022-12-25T07:58:44.277Z,0.92
2022-12-25T08:01:19.730Z,0.92
2022-12-25T08:03:52.988Z,1.04
2022-12-25T08:06:22.095Z,1.11
2022-12-25T08:08:51.330Z,1.27
2022-12-25T08:11:18.947Z,1.32
2022-12-25T08:13:46.457Z,1.38
2022-12-25T08:16:14.199Z,1.48
2022-12-25T08:18:41.594Z,1.63
2022-12-25T08:21:12.967Z,1.59
2022-12-25T08:23:45.940Z,1.71
2022-12-25T08:26:17.195Z,1.83
2022-12-25T08:28:45.961Z,1.98
2022-12-25T08:31:25.718Z,2.12
2022-12-25T08:33:55.908Z,2.47
2022-12-25T08:36:23.998Z,2.67
2022-12-25T08:38:53.462Z,2.85
2022-12-25T08:41:23.550Z,3.19
2022-12-25T08:43:51.037Z,4.03
2022-12-25T08:46:18.497Z,5.58
2022-12-25T08:48:48.744Z,6.89
2022-12-25T08:51:20.434Z,8.13
2022-12-25T08:53:51.367Z,9.30
2022-12-25T08:56:20.828Z,10.23
2022-12-25T08:58:48.400Z,10.96
2022-12-25T09:01:15.889Z,11.66
2022-12-25T09:03:43.811Z,12.20
2022-12-25T09:06:16.886Z,12.51
2022-12-25T09:08:49.278Z,12.96
2022-12-25T09:11:18.984Z,13.37
2022-12-25T09:13:47.409Z,13.67
2022-12-25T09:16:20.515Z,14.08
2022-12-25T09:18:50.190Z,14.01
2022-12-25T09:21:18.566Z,14.16
2022-12-25T09:23:46.040Z,14.65
2022-12-25T09:26:16.321Z,15.10
2022-12-25T09:28:50.857Z,15.74
2022-12-25T09:31:23.896Z,16.37
2022-12-25T09:33:56.052Z,16.58
2022-12-25T09:36:25.270Z,16.81
2022-12-25T09:38:53.666Z,17.25
2022-12-25T09:41:21.205Z,17.29
2022-12-25T09:44:12.285Z,17.21
2022-12-25T09:46:51.677Z,17.43
2022-12-25T09:49:49.355Z,17.68
2022-12-25T09:52:45.107Z,17.82
2022-12-25T09:55:20.720Z,18.03
2022-12-25T09:57:57.087Z,18.46
2022-12-25T10:00:35.195Z,18.91
2022-12-25T10:03:05.799Z,18.95
2022-12-25T10:06:01.035Z,18.05
2022-12-25T10:09:06.948Z,18.43
2022-12-25T10:11:50.196Z,18.48
2022-12-25T10:14:39.510Z,18.18
2022-12-25T10:17:41.157Z,16.71
2022-12-25T10:20:36.524Z,16.84
2022-12-25T10:23:09.830Z,15.38
2022-12-25T10:25:39.718Z,13.84
2022-12-25T10:28:15.308Z,13.69
2022-12-25T10:30:46.427Z,13.88
2022-12-25T10:33:17.417Z,14.69
2022-12-25T10:35:46.491Z,15.10
2022-12-25T10:38:16.719Z,15.42
2022-12-25T10:41:05.924Z,15.63
2022-12-25T10:44:35.205Z,15.77
2022-12-25T10:47:04.553Z,14.96
2022-12-25T10:49:40.207Z,15.56
2022-12-25T10:52:22.429Z,15.36
2022-12-25T10:54:51.521Z,15.07
2022-12-25T10:57:22.427Z,15.35
2022-12-25T10:59:56.393Z,14.03
2022-12-25T11:02:27.364Z,14.34
2022-12-25T11:05:22.011Z,15.00
2022-12-25T11:07:56.593Z,16.33
2022-12-25T11:10:38.932Z,15.77
2022-12-25T11:13:08.547Z,16.87
2022-12-25T11:15:51.026Z,17.35
2022-12-25T11:18:23.044Z,16.41
2022-12-25T11:20:55.746Z,16.57
2022-12-25T11:23:25.707Z,16.64
2022-12-25T11:26:02.195Z,18.11
2022-12-25T11:28:31.907Z,19.41
2022-12-25T11:31:09.337Z,20.37
2022-12-25T11:33:43.121Z,20.12
2022-12-25T11:36:16.162Z,18.90
2022-12-25T11:38:43.791Z,17.75
2022-12-25T11:41:19.352Z,17.41
2022-12-25T11:43:59.640Z,16.56
2022-12-25T11:46:46.386Z,16.31
2022-12-25T11:49:21.444Z,17.01
2022-12-25T11:51:54.650Z,18.18
2022-12-25T11:54:40.527Z,17.09
2022-12-25T11:57:13.092Z,16.56
2022-12-25T12:00:04.537Z,15.55
2022-12-25T12:03:03.266Z,16.51
2022-12-25T12:05:46.526Z,17.01
2022-12-25T12:08:14.826Z,15.53
2022-12-25T12:11:19.093Z,15.76
2022-12-25T12:14:17.194Z,16.61
2022-12-25T12:16:44.828Z,16.07
2022-12-25T12:19:24.484Z,16.83
2022-12-25T12:21:56.073Z,17.55
2022-12-25T12:24:25.877Z,16.44
2022-12-25T12:27:15.149Z,16.61
2022-12-25T12:29:49.511Z,16.78
2022-12-25T12:32:32.524Z,16.85
2022-12-25T12:35:01.211Z,18.05
2022-12-25T12:37:36.082Z,18.30
2022-12-25T12:40:06.555Z,18.34
2022-12-25T12:42:40.596Z,18.14
2022-12-25T12:45:27.857Z,19.05
2022-12-25T12:47:56.045Z,18.71
2022-12-25T12:50:41.262Z,19.01
2022-12-25T12:53:26.594Z,18.01
2022-12-25T12:55:54.548Z,17.86
2022-12-25T12:58:34.772Z,17.48
2022-12-25T13:01:15.568Z,16.53
2022-12-25T13:04:22.384Z,14.41
2022-12-25T13:07:03.098Z,14.53
2022-12-25T13:09:50.284Z,14.77
2022-12-25T13:12:19.259Z,14.78
2022-12-25T13:14:48.476Z,14.64
2022-12-25T13:17:26.441Z,15.49
2022-12-25T13:20:00.117Z,16.30
2022-12-25T13:22:38.356Z,15.11
2022-12-25T13:25:17.845Z,14.93
2022-12-25T13:27:45.221Z,13.78
2022-12-25T13:30:14.789Z,12.43
2022-12-25T13:32:46.169Z,12.11
2022-12-25T13:35:16.549Z,12.43
2022-12-25T13:37:45.095Z,12.51
2022-12-25T13:40:26.674Z,12.33
2022-12-25T13:43:01.928Z,12.15
2022-12-25T13:45:31.406Z,12.17
2022-12-25T13:48:14.832Z,11.45
2022-12-25T13:50:48.702Z,11.14
2022-12-25T13:53:17.797Z,10.68
2022-12-25T13:55:52.745Z,10.18
2022-12-25T13:58:33.928Z,9.94
2022-12-25T14:01:12.183Z,9.96
2022-12-25T14:03:46.399Z,10.24
2022-12-25T14:06:27.506Z,10.59
2022-12-25T14:09:00.340Z,10.85
2022-12-25T14:11:34.005Z,10.55
2022-12-25T14:14:04.488Z,10.63
2022-12-25T14:16:31.996Z,10.18
2022-12-25T14:19:01.982Z,9.39
2022-12-25T14:21:33.773Z,9.25
2022-12-25T14:24:01.874Z,9.01
2022-12-25T14:26:34.277Z,8.98
2022-12-25T14:29:16.737Z,9.01
2022-12-25T14:31:46.471Z,8.73
2022-12-25T14:34:22.512Z,8.38
2022-12-25T14:36:51.114Z,8.28
2022-12-25T14:39:36.931Z,8.11
2022-12-25T14:42:20.943Z,8.00
2022-12-25T14:45:33.955Z,7.84
2022-12-25T14:48:24.605Z,7.72
2022-12-25T14:51:04.858Z,7.61
2022-12-25T14:53:56.488Z,7.48
2022-12-25T14:56:28.119Z,7.35
2022-12-25T14:59:00.127Z,7.32
2022-12-25T15:01:51.438Z,7.31
2022-12-25T15:04:20.968Z,7.27
2022-12-25T15:07:09.900Z,7.18
2022-12-25T15:09:38.117Z,7.16
2022-12-25T15:12:05.692Z,7.03
2022-12-25T15:14:36.663Z,6.97
2022-12-25T15:17:04.509Z,6.84
2022-12-25T15:19:39.032Z,6.83
2022-12-25T15:22:07.147Z,6.78
2022-12-25T15:24:42.581Z,6.72
2022-12-25T15:27:19.078Z,6.78
2022-12-25T15:30:11.097Z,6.75
2022-12-25T15:32:38.807Z,6.64
2022-12-25T15:35:19.549Z,6.69
2022-12-25T15:37:49.975Z,6.63
2022-12-25T15:40:20.047Z,6.69
2022-12-25T15:42:49.570Z,6.69
2022-12-25T15:45:38.639Z,6.61
2022-12-25T15:48:06.073Z,6.56
2022-12-25T15:50:37.043Z,6.58
2022-12-25T15:53:04.380Z,6.56
2022-12-25T15:55:32.240Z,6.42
2022-12-25T15:57:59.522Z,6.41
2022-12-25T16:00:30.165Z,6.42
2022-12-25T16:02:59.629Z,6.43
2022-12-25T16:05:27.555Z,6.45
2022-12-25T16:07:55.901Z,6.43
2022-12-25T16:10:23.456Z,6.42
2022-12-25T16:12:50.912Z,6.40
2022-12-25T16:15:18.442Z,6.42
2022-12-25T16:17:45.809Z,6.36
2022-12-25T16:20:13.580Z,6.33
2022-12-25T16:22:41.312Z,6.28
2022-12-25T16:25:19.965Z,6.23
2022-12-25T16:27:47.849Z,6.30
2022-12-25T16:30:18.458Z,6.40
2022-12-25T16:32:53.264Z,6.37
2022-12-25T16:35:21.620Z,6.38
2022-12-25T16:37:48.965Z,6.28
2022-12-25T16:40:18.421Z,6.29
2022-12-25T16:42:45.999Z,6.31
2022-12-25T16:45:13.587Z,6.45
2022-12-25T16:47:40.926Z,6.43
2022-12-25T16:50:09.953Z,6.51
2022-12-25T16:52:37.326Z,6.47
2022-12-25T16:55:06.386Z,6.46
2022-12-25T16:57:33.877Z,6.34
2022-12-25T17:00:01.203Z,6.39
2022-12-25T17:02:30.022Z,6.33
2022-12-25T17:04:57.547Z,6.28
2022-12-25T17:07:25.131Z,6.38
2022-12-25T17:09:54.755Z,6.35
2022-12-25T17:12:23.236Z,6.34
2022-12-25T17:14:52.960Z,6.31
2022-12-25T17:17:20.827Z,6.33
2022-12-25T17:19:47.982Z,6.35
2022-12-25T17:22:15.570Z,6.40
2022-12-25T17:24:43.055Z,6.38
2022-12-25T17:27:10.522Z,6.40
2022-12-25T17:29:40.743Z,6.40
2022-12-25T17:32:11.220Z,6.43
2022-12-25T17:34:38.912Z,6.42
2022-12-25T17:37:06.801Z,6.43
2022-12-25T17:39:34.420Z,6.44
2022-12-25T17:42:01.849Z,6.41
2022-12-25T17:44:29.329Z,6.37
2022-12-25T17:46:56.795Z,6.34
2022-12-25T17:49:24.474Z,6.31
2022-12-25T17:51:53.917Z,6.30
2022-12-25T17:54:21.174Z,6.31
2022-12-25T17:56:49.713Z,6.31
2022-12-25T17:59:19.017Z,6.27
2022-12-25T18:01:48.455Z,6.33
2022-12-25T18:04:16.293Z,6.35
2022-12-25T18:06:43.598Z,6.39
2022-12-25T18:09:12.923Z,6.35
2022-12-25T18:11:42.565Z,6.39
2022-12-25T18:14:17.331Z,6.38
2022-12-25T18:16:50.919Z,6.29
2022-12-25T18:19:18.806Z,6.45
2022-12-25T18:21:46.205Z,6.55
2022-12-25T18:24:13.782Z,6.53
2022-12-25T18:27:09.079Z,6.50
2022-12-25T18:29:36.776Z,6.56
2022-12-25T18:32:04.454Z,6.53
2022-12-25T18:34:32.432Z,6.47
2022-12-25T18:37:03.346Z,6.48
2022-12-25T18:39:33.303Z,6.43
2022-12-25T18:42:19.233Z,6.43
2022-12-25T18:44:48.565Z,6.38
2022-12-25T18:47:16.031Z,6.30
2022-12-25T18:49:51.659Z,6.30
2022-12-25T18:52:50.373Z,6.29
2022-12-25T18:55:09.291Z,6.33
2022-12-25T18:57:38.025Z,6.37
2022-12-25T19:00:10.984Z,6.43
2022-12-25T19:02:38.365Z,6.43
2022-12-25T19:05:08.409Z,6.36
2022-12-25T19:07:37.131Z,6.33
2022-12-25T19:10:06.075Z,6.35
2022-12-25T19:12:34.379Z,6.29
2022-12-25T19:15:08.340Z,6.20
2022-12-25T19:17:37.033Z,6.19
2022-12-25T19:20:06.382Z,6.16
2022-12-25T19:22:38.827Z,6.14
2022-12-25T19:25:07.965Z,6.16
2022-12-25T19:27:36.270Z,6.16
2022-12-25T19:30:07.184Z,6.20
2022-12-25T19:32:35.072Z,6.18
2022-12-25T19:35:04.985Z,6.23
2022-12-25T19:37:33.823Z,6.26
2022-12-25T19:40:01.218Z,6.23
2022-12-25T19:42:28.743Z,6.23
2022-12-25T19:44:56.372Z,6.20
2022-12-25T19:47:26.127Z,6.17
2022-12-25T19:49:56.279Z,6.10
2022-12-25T19:52:25.669Z,6.13
2022-12-25T19:54:53.352Z,6.10
2022-12-25T19:57:22.749Z,6.01
2022-12-25T19:59:50.284Z,6.02
2022-12-25T20:02:17.941Z,5.93
2022-12-25T20:04:45.470Z,5.89
2022-12-25T20:07:13.408Z,5.88
2022-12-25T20:09:40.901Z,5.87
2022-12-25T20:12:16.636Z,5.90
2022-12-25T20:14:45.196Z,5.99
2022-12-25T20:17:18.763Z,5.99
2022-12-25T20:19:52.527Z,6.11
2022-12-25T20:22:26.466Z,6.14
2022-12-25T20:24:54.867Z,6.13
2022-12-25T20:27:22.573Z,6.10
2022-12-25T20:29:50.852Z,6.07
2022-12-25T20:32:19.473Z,6.03
2022-12-25T20:34:48.806Z,6.01
2022-12-25T20:37:16.640Z,6.00
2022-12-25T20:39:46.481Z,5.97
2022-12-25T20:42:14.411Z,5.93
2022-12-25T20:44:48.119Z,5.98
2022-12-25T20:47:16.151Z,5.98
2022-12-25T20:49:43.857Z,5.97
2022-12-25T20:52:11.467Z,5.93
2022-12-25T20:54:38.809Z,5.96
2022-12-25T20:57:06.312Z,5.96
2022-12-25T20:59:37.898Z,5.96
2022-12-25T21:02:05.952Z,5.97
2022-12-25T21:04:34.728Z,5.97
2022-12-25T21:07:02.912Z,5.95
2022-12-25T21:09:30.908Z,5.97
2022-12-25T21:11:59.548Z,5.96
2022-12-25T21:14:29.812Z,5.97
2022-12-25T21:16:57.308Z,5.96
2022-12-25T21:19:24.550Z,5.93
2022-12-25T21:21:51.912Z,5.94
2022-12-25T21:24:19.675Z,5.91
2022-12-25T21:26:48.298Z,5.97
2022-12-25T21:29:16.400Z,5.94
2022-12-25T21:32:02.134Z,5.94
2022-12-25T21:34:30.914Z,5.95
2022-12-25T21:36:59.297Z,5.98
2022-12-25T21:39:26.617Z,6.07
2022-12-25T21:41:54.045Z,6.14
2022-12-25T21:44:21.736Z,6.15
2022-12-25T21:46:50.113Z,6.20
2022-12-25T21:49:37.370Z,6.25
2022-12-25T21:52:07.845Z,6.34
2022-12-25T21:54:36.003Z,6.43
2022-12-25T21:57:04.541Z,6.45
2022-12-25T21:59:31.993Z,6.44
2022-12-25T22:01:59.882Z,6.57
2022-12-25T22:04:27.691Z,6.60
2022-12-25T22:07:15.617Z,6.65
2022-12-25T22:09:50.132Z,6.67
2022-12-25T22:12:39.940Z,6.67
2022-12-25T22:15:10.163Z,6.61
2022-12-25T22:18:01.110Z,6.66
2022-12-25T22:20:37.163Z,6.69
2022-12-25T22:23:05.388Z,6.69
2022-12-25T22:25:33.773Z,6.71
2022-12-25T22:28:02.174Z,6.65
2022-12-25T22:30:30.030Z,6.70
2022-12-25T22:32:58.736Z,6.71
2022-12-25T22:35:27.103Z,6.73
2022-12-25T22:37:54.765Z,6.74
2022-12-25T22:40:22.443Z,6.70
2022-12-25T22:42:49.991Z,6.73
2022-12-25T22:45:18.671Z,6.77
2022-12-25T22:47:46.051Z,6.71
2022-12-25T22:50:16.147Z,6.66
2022-12-25T22:52:43.244Z,6.75
2022-12-25T22:55:10.755Z,6.73
2022-12-25T22:57:40.656Z,6.72
2022-12-25T23:00:09.202Z,6.74
2022-12-25T23:02:42.823Z,6.74
2022-12-25T23:05:10.548Z,6.71
2022-12-25T23:07:37.957Z,6.69
2022-12-25T23:10:06.714Z,6.58
2022-12-25T23:12:53.705Z,6.57
2022-12-25T23:15:21.111Z,6.57
2022-12-25T23:18:07.674Z,6.55
2022-12-25T23:20:55.309Z,6.61
2022-12-25T23:23:41.160Z,6.60
2022-12-25T23:26:11.446Z,6.55
2022-12-25T23:29:00.907Z,6.53
2022-12-25T23:31:35.989Z,6.51
2022-12-25T23:34:05.599Z,6.55
2022-12-25T23:36:34.784Z,6.56
2022-12-25T23:39:09.058Z,6.58
2022-12-25T23:41:38.814Z,6.57
2022-12-25T23:44:07.215Z,6.63
2022-12-25T23:46:35.460Z,6.67
2022-12-25T23:49:04.476Z,6.63
2022-12-25T23:51:31.865Z,6.64
2022-12-25T23:53:58.909Z,6.63
2022-12-25T23:56:26.297Z,6.73
2022-12-25T23:58:53.648Z,6.73
